createdAt,value
2022-10-10T00:01:49.446Z,8.67
2022-10-10T00:04:53.181Z,8.61
2022-10-10T00:07:55.501Z,8.58
2022-10-10T00:10:57.477Z,8.59
2022-10-10T00:13:59.579Z,8.52
2022-10-10T00:17:01.552Z,8.54
2022-10-10T00:20:04.082Z,8.45
2022-10-10T00:23:06.067Z,8.46
2022-10-10T00:26:09.278Z,8.45
2022-10-10T00:29:11.946Z,8.44
2022-10-10T00:32:13.976Z,8.44
2022-10-10T00:35:16.001Z,8.42
2022-10-10T00:38:18.416Z,8.44
2022-10-10T00:41:22.307Z,8.42
2022-10-10T00:44:24.392Z,8.41
2022-10-10T00:47:26.373Z,8.38
2022-10-10T00:50:29.967Z,8.41
2022-10-10T00:53:54.131Z,8.41
2022-10-10T00:57:00.804Z,8.40
2022-10-10T01:00:04.760Z,8.39
2022-10-10T01:03:06.926Z,8.40
2022-10-10T01:06:09.343Z,8.40
2022-10-10T01:09:11.278Z,8.39
2022-10-10T01:12:18.092Z,8.39
2022-10-10T01:15:42.645Z,8.37
2022-10-10T01:18:47.257Z,8.37
2022-10-10T01:22:04.313Z,8.38
2022-10-10T01:25:27.726Z,8.43
2022-10-10T01:29:07.508Z,8.47
2022-10-10T01:32:26.697Z,8.54
2022-10-10T01:35:47.053Z,8.66
2022-10-10T01:39:10.086Z,8.75
2022-10-10T01:42:25.136Z,8.84
2022-10-10T01:45:28.454Z,8.92
2022-10-10T01:48:32.443Z,9.04
2022-10-10T01:51:55.038Z,9.14
2022-10-10T01:55:20.042Z,9.25
2022-10-10T01:58:48.007Z,9.35
2022-10-10T02:02:16.248Z,9.45
2022-10-10T02:05:33.363Z,9.55
2022-10-10T02:08:43.650Z,9.62
2022-10-10T02:11:45.640Z,9.66
2022-10-10T02:14:51.454Z,9.70
2022-10-10T02:17:56.381Z,9.72
2022-10-10T02:20:58.752Z,9.76
2022-10-10T02:24:06.876Z,9.82
2022-10-10T02:27:16.066Z,9.85
2022-10-10T02:30:18.900Z,9.89
2022-10-10T02:33:27.139Z,9.92
2022-10-10T02:36:31.371Z,9.96
2022-10-10T02:39:40.810Z,9.98
2022-10-10T02:42:45.421Z,9.99
2022-10-10T02:45:47.422Z,10.00
2022-10-10T02:48:49.370Z,9.99
2022-10-10T02:51:51.422Z,9.99
2022-10-10T02:54:53.473Z,9.99
2022-10-10T02:57:55.445Z,9.98
2022-10-10T03:00:57.414Z,9.97
2022-10-10T03:03:59.416Z,9.94
2022-10-10T03:07:01.305Z,9.92
2022-10-10T03:10:06.241Z,9.89
2022-10-10T03:13:08.587Z,9.87
2022-10-10T03:16:11.351Z,9.86
2022-10-10T03:19:13.332Z,9.87
2022-10-10T03:22:15.290Z,9.86
2022-10-10T03:25:17.324Z,9.87
2022-10-10T03:28:19.436Z,9.85
2022-10-10T03:31:22.202Z,9.83
2022-10-10T03:34:24.217Z,9.83
2022-10-10T03:37:26.230Z,9.83
2022-10-10T03:40:29.342Z,9.83
2022-10-10T03:43:31.983Z,9.81
2022-10-10T03:46:33.923Z,9.85
2022-10-10T03:49:35.814Z,9.85
2022-10-10T03:52:37.876Z,9.89
2022-10-10T03:55:41.288Z,9.87
2022-10-10T03:58:43.519Z,9.91
2022-10-10T04:01:45.524Z,9.92
2022-10-10T04:04:47.551Z,9.93
2022-10-10T04:07:49.528Z,9.95
2022-10-10T04:10:53.504Z,9.97
2022-10-10T04:13:55.489Z,9.98
2022-10-10T04:17:00.959Z,10.03
2022-10-10T04:20:05.493Z,10.06
2022-10-10T04:23:07.804Z,10.04
2022-10-10T04:26:09.795Z,10.05
2022-10-10T04:29:11.802Z,10.05
2022-10-10T04:32:14.007Z,10.04
2022-10-10T04:35:15.969Z,10.07
2022-10-10T04:38:19.910Z,10.05
2022-10-10T04:41:21.861Z,10.02
2022-10-10T04:44:23.959Z,9.98
2022-10-10T04:47:25.927Z,9.99
2022-10-10T04:50:28.043Z,9.98
2022-10-10T04:53:30.040Z,9.96
2022-10-10T04:56:32.029Z,9.97
2022-10-10T04:59:34.438Z,9.96
2022-10-10T05:02:36.397Z,9.96
2022-10-10T05:05:39.907Z,9.92
2022-10-10T05:08:41.968Z,9.88
2022-10-10T05:11:44.015Z,9.88
2022-10-10T05:14:48.227Z,9.86
2022-10-10T05:17:50.467Z,9.86
2022-10-10T05:20:52.442Z,9.82
2022-10-10T05:23:54.825Z,9.82
2022-10-10T05:26:56.800Z,9.81
2022-10-10T05:29:58.841Z,9.83
2022-10-10T05:33:00.808Z,9.83
2022-10-10T05:36:11.970Z,9.83
2022-10-10T05:39:13.964Z,9.87
2022-10-10T05:42:16.100Z,9.85
2022-10-10T05:45:18.155Z,9.81
2022-10-10T05:48:20.208Z,9.87
2022-10-10T05:51:22.245Z,9.85
2022-10-10T05:54:24.286Z,9.95
2022-10-10T05:57:26.359Z,9.99
2022-10-10T06:00:29.164Z,10.02
2022-10-10T06:03:31.339Z,10.05
2022-10-10T06:06:33.395Z,10.08
2022-10-10T06:09:35.451Z,10.08
2022-10-10T06:12:37.489Z,10.16
2022-10-10T06:15:39.499Z,10.20
2022-10-10T06:18:41.491Z,10.27
2022-10-10T06:21:43.473Z,10.34
2022-10-10T06:24:47.494Z,10.43
2022-10-10T06:27:52.893Z,10.54
2022-10-10T06:30:54.951Z,10.63
2022-10-10T06:33:56.987Z,10.66
2022-10-10T06:36:59.043Z,10.75
2022-10-10T06:40:01.041Z,10.84
2022-10-10T06:43:04.742Z,10.88
2022-10-10T06:46:06.793Z,10.87
2022-10-10T06:49:08.961Z,10.94
2022-10-10T06:52:10.931Z,10.99
2022-10-10T06:55:12.857Z,11.03
2022-10-10T06:58:15.014Z,11.08
2022-10-10T07:01:21.806Z,11.11
2022-10-10T07:04:23.869Z,11.17
2022-10-10T07:07:25.870Z,11.13
2022-10-10T07:10:27.887Z,11.16
2022-10-10T07:13:29.937Z,11.23
2022-10-10T07:16:32.483Z,11.26
2022-10-10T07:19:36.854Z,11.47
2022-10-10T07:22:38.945Z,11.49
2022-10-10T07:25:42.833Z,11.49
2022-10-10T07:28:45.458Z,11.54
2022-10-10T07:31:47.517Z,11.52
2022-10-10T07:34:51.056Z,11.51
2022-10-10T07:37:56.338Z,11.58
2022-10-10T07:40:58.435Z,11.57
2022-10-10T07:44:00.483Z,11.57
2022-10-10T07:47:02.448Z,11.58
2022-10-10T07:50:06.300Z,11.57
2022-10-10T07:53:09.525Z,11.53
2022-10-10T07:56:12.146Z,11.61
2022-10-10T07:59:14.346Z,11.59
2022-10-10T08:02:16.508Z,11.62
2022-10-10T08:05:18.576Z,11.81
2022-10-10T08:08:20.602Z,11.84
2022-10-10T08:11:22.782Z,11.97
2022-10-10T08:14:24.766Z,12.06
2022-10-10T08:17:26.864Z,11.94
2022-10-10T08:20:28.814Z,12.15
2022-10-10T08:23:30.874Z,12.48
2022-10-10T08:26:32.989Z,12.65
2022-10-10T08:29:35.010Z,12.74
2022-10-10T08:32:36.958Z,13.09
2022-10-10T08:35:40.123Z,13.10
2022-10-10T08:38:42.355Z,13.37
2022-10-10T08:41:58.171Z,13.89
2022-10-10T08:45:06.642Z,14.35
2022-10-10T08:48:14.833Z,14.66
2022-10-10T08:51:29.714Z,14.68
2022-10-10T08:54:33.826Z,14.51
2022-10-10T08:57:49.918Z,14.47
2022-10-10T09:00:56.498Z,14.65
2022-10-10T09:04:01.960Z,14.86
2022-10-10T09:07:19.215Z,14.97
2022-10-10T09:10:52.706Z,15.47
2022-10-10T09:14:20.082Z,15.50
2022-10-10T09:17:53.995Z,14.83
2022-10-10T09:20:58.941Z,15.34
2022-10-10T09:24:22.633Z,15.87
2022-10-10T09:27:31.969Z,16.28
2022-10-10T09:30:40.893Z,16.92
2022-10-10T09:33:52.265Z,16.85
2022-10-10T09:36:59.134Z,16.34
2022-10-10T09:40:11.716Z,17.59
2022-10-10T09:43:21.156Z,18.06
2022-10-10T09:46:23.512Z,19.15
2022-10-10T09:49:25.925Z,19.49
2022-10-10T09:52:30.910Z,19.69
2022-10-10T09:55:36.040Z,20.37
2022-10-10T09:58:47.338Z,20.34
2022-10-10T10:02:02.903Z,21.03
2022-10-10T10:05:18.937Z,20.46
2022-10-10T10:08:26.368Z,21.45
2022-10-10T10:11:35.131Z,21.84
2022-10-10T10:14:38.702Z,21.79
2022-10-10T10:17:40.646Z,22.42
2022-10-10T10:20:48.190Z,21.45
2022-10-10T10:23:50.129Z,20.29
2022-10-10T10:26:52.130Z,20.40
2022-10-10T10:29:57.104Z,19.93
2022-10-10T10:33:27.048Z,20.02
2022-10-10T10:36:38.320Z,19.57
2022-10-10T10:40:13.834Z,18.06
2022-10-10T10:43:28.025Z,17.66
2022-10-10T10:47:04.239Z,16.95
2022-10-10T10:50:30.790Z,17.10
2022-10-10T10:53:57.711Z,17.83
2022-10-10T10:57:32.198Z,18.48
2022-10-10T11:01:24.349Z,19.15
2022-10-10T11:05:23.047Z,20.10
2022-10-10T11:08:07.356Z,20.41
2022-10-10T11:11:19.395Z,21.25
2022-10-10T11:14:52.498Z,21.63
2022-10-10T11:18:10.569Z,21.67
2022-10-10T11:21:19.494Z,20.46
2022-10-10T11:24:21.450Z,19.27
2022-10-10T11:27:46.082Z,18.88
2022-10-10T11:30:54.601Z,18.46
2022-10-10T11:34:05.927Z,18.38
2022-10-10T11:37:16.853Z,18.55
2022-10-10T11:40:28.953Z,18.96
2022-10-10T11:43:40.794Z,18.80
2022-10-10T11:46:50.924Z,19.10
2022-10-10T11:49:58.589Z,18.92
2022-10-10T11:53:12.660Z,19.09
2022-10-10T11:56:17.716Z,18.25
2022-10-10T11:59:53.807Z,18.32
2022-10-10T12:02:58.355Z,18.64
2022-10-10T12:06:11.343Z,18.32
2022-10-10T12:09:32.779Z,18.28
2022-10-10T12:12:40.324Z,18.53
2022-10-10T12:15:46.591Z,18.76
2022-10-10T12:18:54.478Z,18.89
2022-10-10T12:22:05.709Z,19.23
2022-10-10T12:25:20.725Z,18.94
2022-10-10T12:28:54.893Z,19.27
2022-10-10T12:32:13.580Z,19.43
2022-10-10T12:35:35.891Z,19.60
2022-10-10T12:38:37.931Z,19.25
2022-10-10T12:41:47.253Z,19.60
2022-10-10T12:44:49.661Z,19.38
2022-10-10T12:48:07.325Z,19.69
2022-10-10T12:51:22.011Z,19.72
2022-10-10T12:54:45.027Z,19.27
2022-10-10T12:57:49.411Z,19.36
2022-10-10T13:00:52.933Z,19.21
2022-10-10T13:03:56.327Z,19.04
2022-10-10T13:07:02.030Z,19.13
2022-10-10T13:10:19.384Z,19.11
2022-10-10T13:13:21.449Z,19.02
2022-10-10T13:16:29.810Z,18.64
2022-10-10T13:19:41.651Z,19.06
2022-10-10T13:22:47.186Z,18.75
2022-10-10T13:25:49.518Z,19.20
2022-10-10T13:28:53.590Z,19.34
2022-10-10T13:32:06.246Z,19.61
2022-10-10T13:35:27.047Z,19.69
2022-10-10T13:38:29.026Z,19.55
2022-10-10T13:41:31.292Z,20.14
2022-10-10T13:44:47.935Z,21.14
2022-10-10T13:47:52.261Z,21.64
2022-10-10T13:51:07.467Z,22.39
2022-10-10T13:54:37.440Z,23.03
2022-10-10T13:57:40.887Z,23.09
2022-10-10T14:00:43.354Z,23.42
2022-10-10T14:03:47.735Z,23.13
2022-10-10T14:06:52.697Z,22.72
2022-10-10T14:09:59.809Z,21.97
2022-10-10T14:13:01.957Z,21.12
2022-10-10T14:16:25.423Z,20.98
2022-10-10T14:19:27.866Z,20.42
2022-10-10T14:22:29.886Z,21.43
2022-10-10T14:25:32.328Z,21.60
2022-10-10T14:28:38.834Z,21.86
2022-10-10T14:31:42.300Z,22.09
2022-10-10T14:34:44.883Z,22.23
2022-10-10T14:37:46.835Z,21.98
2022-10-10T14:40:50.184Z,21.93
2022-10-10T14:43:52.230Z,21.74
2022-10-10T14:46:54.260Z,21.75
2022-10-10T14:49:58.069Z,20.81
2022-10-10T14:53:00.095Z,20.75
2022-10-10T14:56:02.028Z,20.80
2022-10-10T14:59:04.043Z,20.47
2022-10-10T15:02:06.435Z,19.91
2022-10-10T15:05:08.514Z,19.88
2022-10-10T15:08:15.802Z,19.68
2022-10-10T15:11:18.196Z,19.38
2022-10-10T15:14:20.134Z,19.07
2022-10-10T15:17:22.177Z,19.31
2022-10-10T15:20:30.898Z,19.37
2022-10-10T15:23:33.278Z,19.21
2022-10-10T15:26:35.297Z,19.17
2022-10-10T15:29:39.073Z,19.03
2022-10-10T15:32:41.800Z,18.84
2022-10-10T15:36:08.123Z,18.51
2022-10-10T15:39:05.897Z,18.31
2022-10-10T15:42:14.022Z,18.18
2022-10-10T15:45:31.224Z,18.02
2022-10-10T15:48:39.365Z,17.61
2022-10-10T15:51:46.391Z,17.39
2022-10-10T15:54:49.374Z,17.14
2022-10-10T15:57:51.374Z,16.94
2022-10-10T16:00:54.404Z,16.68
2022-10-10T16:03:57.071Z,16.45
2022-10-10T16:07:23.231Z,16.32
2022-10-10T16:10:21.079Z,16.17
2022-10-10T16:13:23.612Z,15.88
2022-10-10T16:16:25.779Z,15.61
2022-10-10T16:19:28.023Z,15.43
2022-10-10T16:22:29.958Z,15.21
2022-10-10T16:25:31.907Z,15.07
2022-10-10T16:28:34.776Z,14.89
2022-10-10T16:31:39.215Z,14.81
2022-10-10T16:34:41.241Z,14.71
2022-10-10T16:37:43.359Z,14.56
2022-10-10T16:40:45.376Z,14.45
2022-10-10T16:43:48.078Z,14.36
2022-10-10T16:46:50.477Z,14.24
2022-10-10T16:49:52.442Z,14.19
2022-10-10T16:52:54.429Z,14.16
2022-10-10T16:56:00.933Z,14.10
2022-10-10T16:59:03.490Z,14.08
2022-10-10T17:02:05.531Z,14.05
2022-10-10T17:05:08.080Z,14.01
2022-10-10T17:08:10.517Z,13.92
2022-10-10T17:11:14.621Z,13.79
2022-10-10T17:14:16.700Z,13.71
2022-10-10T17:17:19.514Z,13.72
2022-10-10T17:20:22.079Z,13.63
2022-10-10T17:23:23.999Z,13.53
2022-10-10T17:26:28.007Z,13.46
2022-10-10T17:29:30.023Z,13.42
2022-10-10T17:32:32.268Z,13.33
2022-10-10T17:35:42.559Z,13.31
2022-10-10T17:38:45.614Z,13.27
2022-10-10T17:41:49.356Z,13.23
2022-10-10T17:44:56.135Z,13.18
2022-10-10T17:47:58.296Z,13.10
2022-10-10T17:51:00.343Z,13.03
2022-10-10T17:54:03.478Z,12.97
2022-10-10T17:57:05.588Z,12.90
2022-10-10T18:00:08.234Z,12.84
2022-10-10T18:03:12.431Z,12.79
2022-10-10T18:06:18.390Z,12.74
2022-10-10T18:09:20.896Z,12.70
2022-10-10T18:12:23.266Z,12.71
2022-10-10T18:15:25.249Z,12.67
2022-10-10T18:18:27.497Z,12.62
2022-10-10T18:21:29.685Z,12.52
2022-10-10T18:24:32.278Z,12.44
2022-10-10T18:27:34.754Z,12.34
2022-10-10T18:30:40.582Z,12.30
2022-10-10T18:33:45.467Z,12.22
2022-10-10T18:36:47.562Z,12.16
2022-10-10T18:39:49.670Z,12.08
2022-10-10T18:42:51.967Z,12.02
2022-10-10T18:45:59.825Z,11.94
2022-10-10T18:49:03.357Z,11.87
2022-10-10T18:52:07.886Z,11.82
2022-10-10T18:55:17.402Z,11.84
2022-10-10T18:58:19.788Z,11.77
2022-10-10T19:01:24.895Z,11.70
2022-10-10T19:04:27.624Z,11.63
2022-10-10T19:07:29.759Z,11.55
2022-10-10T19:10:31.976Z,11.52
2022-10-10T19:13:34.742Z,11.49
2022-10-10T19:16:38.022Z,11.46
2022-10-10T19:19:40.106Z,11.39
2022-10-10T19:22:42.162Z,11.34
2022-10-10T19:25:48.739Z,11.28
2022-10-10T19:28:53.978Z,11.22
2022-10-10T19:31:56.317Z,11.16
2022-10-10T19:34:58.991Z,11.11
2022-10-10T19:38:01.029Z,11.05
2022-10-10T19:41:07.180Z,11.05
2022-10-10T19:44:09.286Z,10.99
2022-10-10T19:47:11.265Z,10.94
2022-10-10T19:50:13.272Z,10.91
2022-10-10T19:53:18.031Z,10.86
2022-10-10T19:56:24.608Z,10.81
2022-10-10T19:59:26.761Z,10.78
2022-10-10T20:02:28.716Z,10.76
2022-10-10T20:05:30.858Z,10.74
2022-10-10T20:08:33.508Z,10.74
2022-10-10T20:11:35.660Z,10.71
2022-10-10T20:14:37.735Z,10.68
2022-10-10T20:17:39.862Z,10.66
2022-10-10T20:20:44.743Z,10.63
2022-10-10T20:23:49.140Z,10.62
2022-10-10T20:26:51.271Z,10.66
2022-10-10T20:29:53.303Z,10.64
2022-10-10T20:32:55.282Z,10.60
2022-10-10T20:36:01.224Z,10.54
2022-10-10T20:39:06.880Z,10.51
2022-10-10T20:42:09.069Z,10.47
2022-10-10T20:45:11.762Z,10.46
2022-10-10T20:48:13.823Z,10.40
2022-10-10T20:51:15.776Z,10.37
2022-10-10T20:54:20.490Z,10.32
2022-10-10T20:57:22.585Z,10.30
2022-10-10T21:00:26.766Z,10.31
2022-10-10T21:03:30.260Z,10.31
2022-10-10T21:06:34.700Z,10.31
2022-10-10T21:09:37.293Z,10.29
2022-10-10T21:12:39.690Z,10.27
2022-10-10T21:15:43.593Z,10.22
2022-10-10T21:18:57.096Z,10.25
2022-10-10T21:22:06.719Z,10.27
2022-10-10T21:25:09.046Z,10.25
2022-10-10T21:28:11.191Z,10.27
2022-10-10T21:31:15.672Z,10.29
2022-10-10T21:34:19.072Z,10.26
2022-10-10T21:37:21.163Z,10.23
2022-10-10T21:40:23.155Z,10.25
2022-10-10T21:43:25.364Z,10.21
2022-10-10T21:46:34.981Z,10.20
2022-10-10T21:49:38.388Z,10.15
2022-10-10T21:52:40.467Z,10.06
2022-10-10T21:55:42.490Z,10.06
2022-10-10T21:58:47.857Z,10.10
2022-10-10T22:01:49.876Z,10.11
2022-10-10T22:04:52.023Z,10.11
2022-10-10T22:07:54.006Z,10.11
2022-10-10T22:11:00.479Z,10.08
2022-10-10T22:14:03.313Z,10.08
2022-10-10T22:17:05.274Z,9.98
2022-10-10T22:20:09.760Z,10.01
2022-10-10T22:23:11.866Z,9.97
2022-10-10T22:26:16.909Z,9.98
2022-10-10T22:29:18.903Z,9.94
2022-10-10T22:32:21.153Z,9.91
2022-10-10T22:35:23.220Z,9.90
2022-10-10T22:38:25.227Z,9.88
2022-10-10T22:41:27.213Z,9.89
2022-10-10T22:44:29.174Z,9.89
2022-10-10T22:47:31.159Z,9.87
2022-10-10T22:50:33.743Z,9.83
2022-10-10T22:53:36.177Z,9.80
2022-10-10T22:56:38.179Z,9.77
2022-10-10T22:59:40.191Z,9.69
2022-10-10T23:02:42.145Z,9.64
2022-10-10T23:05:45.479Z,9.57
2022-10-10T23:08:47.558Z,9.58
2022-10-10T23:11:49.518Z,9.54
2022-10-10T23:14:51.538Z,9.54
2022-10-10T23:17:53.543Z,9.51
2022-10-10T23:20:56.102Z,9.50
2022-10-10T23:23:58.153Z,9.44
2022-10-10T23:27:00.099Z,9.43
2022-10-10T23:30:02.028Z,9.31
2022-10-10T23:33:04.123Z,9.32
2022-10-10T23:36:12.189Z,9.25
2022-10-10T23:39:14.715Z,9.16
2022-10-10T23:42:17.070Z,9.08
2022-10-10T23:45:19.783Z,9.11
2022-10-10T23:48:21.950Z,8.99
2022-10-10T23:51:23.970Z,8.87
2022-10-10T23:54:26.005Z,8.78
2022-10-10T23:57:28.154Z,8.75
